Últimos artigos:
MSK144, FT8… using an IC-9700 and WSJT-X
Resolvendo um problema de áudio no GNU Radio
Converter um número Real para o formato binário em vírgula flutuante segundo a Norma IEEE-754
VirtualBox sobre Debian 10 (buster) não encontra dispositivos USB
Falta de som no Morse Runner em Linux?
Touchpad tapping, em Debian Buster (10)
Últimas fotos:
Últimos METARs:
LPAZ 261300Z 02007KT 330V080 9999 FEW019 B...
LPFR 261300Z 23014KT CAVOK 22/12 Q1014=
LPHR 261300Z 24007KT 220V280 9999 FEW020 S...
LPLA 261300Z /////KT 9999 FEW025 SCT045 22...
LPMA 261300Z 36009KT 320V040 9999 BKN015 2...
LPPD 261300Z 03008KT 340V080 9999 FEW020 2...
LPPR 261300Z 31011KT 280V350 CAVOK 19/10 Q...
LPPS 261300Z 02013KT 350V060 9999 SCT015 S...
LPPT 261300Z 35014KT 320V020 9999 SCT044 2...
Últimos QSOs:
2022/04/18-12:39 40m EA1HPZ (JESUS)
2022/04/18-12:09 40m EA3Y (MANEL)
2022/04/18-12:08 40m EA2CKX (PEDRO)
2022/04/18-12:08 40m EA1AAP (FERNANDO)
2022/04/18-12:07 40m CT2GSN/P (JOAO)
2022/04/18-12:06 40m CT7ABG ()
  UTC
Rpi-6 CPU Temp: 0.0 °C (19Z)
IN51oq 1340Z /////KT //// 26/11 Q1017=
298840